Terminal Aerodrome Forecast
Issued by NWS Twin Cities, MN

Home | Current Version | Previous Version | Text Only | Print | Product List | Glossary On
Versions: 1 2 3 4 5 6 7 8 9 10 11 12 13 14 15 16 17 18 19 20 21 22 23 24
000
FTUS43 KMPX 252327
TAFSTC
TAF
KSTC 252327Z 2600/2624 35006KT P6SM VCSH OVC015
     FM260100 36006KT 4SM SHRA BR OVC015
     FM260500 34006KT 4SM SHRA BR OVC008
     FM261200 33005KT 3SM BR OVC005
     FM261700 31008KT P6SM OVC010
     FM261900 28013G20KT P6SM OVC015
     FM262100 29014G21KT P6SM BKN025=

USA.gov is the U.S. government's official web portal to all federal, state and local government web resources and services.